Wetterdaten: Woche 06.04.09 - 12.04.09 (KW15)
Datum Zeit Temperatur Luftfeuchte Luftdruck Niederschlag Wind Richtung Sonnenschein Solar Taupunkt Windchill Windben
06.04.2009 00:00 9.5 C 84 % 1017.8 hPa 0.0 l/m 0.3 km/h (0 Bft) SO 0.00 h 0 W/m 6.9 C 9.5 C 1.2 km/h (1 Bft)
06.04.2009 01:00 8.8 C 87 % 1017.5 hPa 0.0 l/m 0.5 km/h (0 Bft) SO 0.00 h 0 W/m 6.7 C 8.8 C 1.0 km/h (0 Bft)
06.04.2009 02:00 7.9 C 89 % 1017.2 hPa 0.0 l/m 1.1 km/h (1 Bft) SO 0.00 h 0 W/m 6.3 C 7.9 C 2.1 km/h (1 Bft)
06.04.2009 03:00 7.2 C 92 % 1017.0 hPa 0.0 l/m 0.6 km/h (0 Bft) SO 0.00 h 0 W/m 5.9 C 7.2 C 1.5 km/h (1 Bft)
06.04.2009 04:00 6.8 C 93 % 1016.8 hPa 0.0 l/m 0.3 km/h (0 Bft) SO 0.00 h 0 W/m 5.7 C 6.8 C 1.1 km/h (0 Bft)
06.04.2009 05:00 6.3 C 94 % 1016.7 hPa 0.0 l/m 0.5 km/h (0 Bft) SO 0.00 h 0 W/m 5.3 C 6.3 C 1.2 km/h (1 Bft)
06.04.2009 06:00 5.8 C 95 % 1016.8 hPa 0.0 l/m 0.5 km/h (0 Bft) SO 0.00 h 5 W/m 5.0 C 5.8 C 1.1 km/h (0 Bft)
06.04.2009 07:00 5.4 C 96 % 1017.1 hPa 0.0 l/m 0.2 km/h (0 Bft) SO 0.05 h 36 W/m 4.7 C 5.4 C 0.7 km/h (0 Bft)
06.04.2009 08:00 6.1 C 97 % 1017.5 hPa 0.0 l/m 0.3 km/h (0 Bft) SO 0.05 h 127 W/m 5.6 C 6.1 C 0.8 km/h (0 Bft)
06.04.2009 09:00 8.6 C 97 % 1017.4 hPa 0.0 l/m 0.1 km/h (0 Bft) SO 1.00 h 282 W/m 8.1 C 8.6 C 0.4 km/h (0 Bft)
06.04.2009 10:00 11.4 C 84 % 1017.0 hPa 0.0 l/m 1.7 km/h (1 Bft) SO 1.00 h 451 W/m 8.8 C 11.4 C 3.7 km/h (1 Bft)
06.04.2009 11:00 14.1 C 74 % 1016.5 hPa 0.0 l/m 1.1 km/h (1 Bft) SO 1.00 h 590 W/m 9.5 C 14.1 C 3.2 km/h (1 Bft)
06.04.2009 12:00 16.1 C 66 % 1015.6 hPa 0.0 l/m 2.3 km/h (1 Bft) O-SO 1.00 h 685 W/m 9.7 C 16.1 C 4.5 km/h (1 Bft)
06.04.2009 13:00 17.8 C 59 % 1014.6 hPa 0.0 l/m 1.9 km/h (1 Bft) SO 1.00 h 716 W/m 9.6 C 17.8 C 4.0 km/h (1 Bft)
06.04.2009 14:00 19.0 C 52 % 1013.7 hPa 0.0 l/m 2.0 km/h (1 Bft) O-SO 1.00 h 697 W/m 9.0 C 19.0 C 4.1 km/h (1 Bft)
06.04.2009 15:00 20.2 C 47 % 1012.9 hPa 0.0 l/m 2.5 km/h (1 Bft) O-SO 1.00 h 632 W/m 8.4 C 20.2 C 5.0 km/h (1 Bft)
06.04.2009 16:00 21.4 C 43 % 1012.0 hPa 0.0 l/m 3.0 km/h (1 Bft) W-NW 1.00 h 513 W/m 8.2 C 21.4 C 5.3 km/h (1 Bft)
06.04.2009 17:00 21.4 C 38 % 1011.1 hPa 0.0 l/m 3.2 km/h (1 Bft) W-NW 1.00 h 356 W/m 6.6 C 21.4 C 5.4 km/h (1 Bft)
06.04.2009 18:00 20.4 C 41 % 1010.9 hPa 0.0 l/m 0.9 km/h (0 Bft) O-SO 0.78 h 158 W/m 6.5 C 20.4 C 2.0 km/h (1 Bft)
06.04.2009 19:00 19.5 C 45 % 1010.7 hPa 0.0 l/m 0.7 km/h (0 Bft) O-SO 0.17 h 43 W/m 7.2 C 19.5 C 1.5 km/h (1 Bft)
06.04.2009 20:00 16.7 C 54 % 1010.9 hPa 0.0 l/m 2.3 km/h (1 Bft) O-SO 0.00 h 5 W/m 7.4 C 16.7 C 3.8 km/h (1 Bft)
06.04.2009 21:00 14.0 C 65 % 1011.4 hPa 0.0 l/m 2.0 km/h (1 Bft) O-SO 0.00 h 0 W/m 7.6 C 14.0 C 3.5 km/h (1 Bft)
06.04.2009 22:00 11.9 C 73 % 1011.5 hPa 0.0 l/m 0.5 km/h (0 Bft) O-SO 0.00 h 0 W/m 7.2 C 11.9 C 1.4 km/h (1 Bft)
06.04.2009 23:00 10.4 C 78 % 1011.3 hPa 0.0 l/m 1.2 km/h (1 Bft) O-SO 0.00 h 0 W/m 6.7 C 10.4 C 2.0 km/h (1 Bft)
07.04.2009 00:00 9.6 C 82 % 1011.3 hPa 0.0 l/m 1.7 km/h (1 Bft) O-SO 0.00 h 0 W/m 6.8 C 9.6 C 2.8 km/h (1 Bft)
07.04.2009 01:00 8.9 C 84 % 1011.1 hPa 0.0 l/m 2.5 km/h (1 Bft) O-SO 0.00 h 0 W/m 6.4 C 8.7 C 3.7 km/h (1 Bft)
07.04.2009 02:00 8.4 C 85 % 1011.0 hPa 0.0 l/m 2.3 km/h (1 Bft) SO 0.00 h 0 W/m 6.0 C 8.3 C 3.5 km/h (1 Bft)
07.04.2009 03:00 7.4 C 87 % 1010.9 hPa 0.0 l/m 1.4 km/h (1 Bft) SO 0.00 h 0 W/m 5.4 C 7.4 C 2.1 km/h (1 Bft)
07.04.2009 04:00 6.9 C 89 % 1010.9 hPa 0.0 l/m 1.3 km/h (1 Bft) SO 0.00 h 0 W/m 5.3 C 6.8 C 2.2 km/h (1 Bft)
07.04.2009 05:00 6.4 C 91 % 1010.9 hPa 0.0 l/m 1.5 km/h (1 Bft) SO 0.00 h 0 W/m 5.0 C 6.4 C 2.6 km/h (1 Bft)
07.04.2009 06:00 6.0 C 92 % 1010.9 hPa 0.0 l/m 0.4 km/h (0 Bft) SO 0.00 h 5 W/m 4.7 C 6.0 C 1.0 km/h (0 Bft)
07.04.2009 07:00 5.9 C 93 % 1011.3 hPa 0.0 l/m 0.5 km/h (0 Bft) SO 0.00 h 41 W/m 4.8 C 5.9 C 1.0 km/h (0 Bft)
07.04.2009 08:00 7.7 C 92 % 1011.5 hPa 0.0 l/m 0.0 km/h (0 Bft) N 0.98 h 212 W/m 6.5 C 7.7 C 0.5 km/h (0 Bft)
07.04.2009 09:00 11.0 C 78 % 1011.3 hPa 0.0 l/m 0.2 km/h (0 Bft) SO 1.00 h 351 W/m 7.3 C 11.0 C 1.4 km/h (1 Bft)
07.04.2009 10:00 13.4 C 69 % 1011.2 hPa 0.0 l/m 1.7 km/h (1 Bft) SO 1.00 h 480 W/m 7.8 C 13.4 C 3.2 km/h (1 Bft)
07.04.2009 11:00 15.7 C 62 % 1010.9 hPa 0.0 l/m 1.8 km/h (1 Bft) O-SO 1.00 h 611 W/m 8.5 C 15.7 C 4.0 km/h (1 Bft)
07.04.2009 12:00 18.5 C 56 % 1010.3 hPa 0.0 l/m 2.3 km/h (1 Bft) SO 1.00 h 702 W/m 9.6 C 18.5 C 4.6 km/h (1 Bft)
07.04.2009 13:00 20.4 C 47 % 1009.8 hPa 0.0 l/m 3.3 km/h (1 Bft) W 1.00 h 753 W/m 8.5 C 20.4 C 5.7 km/h (1 Bft)
07.04.2009 14:00 21.4 C 39 % 1009.5 hPa 0.0 l/m 3.4 km/h (1 Bft) W 1.00 h 731 W/m 6.8 C 21.4 C 5.9 km/h (2 Bft)
07.04.2009 15:00 21.0 C 38 % 1009.3 hPa 0.0 l/m 5.2 km/h (1 Bft) W 0.48 h 453 W/m 6.0 C 21.0 C 8.4 km/h (2 Bft)
07.04.2009 16:00 22.1 C 36 % 1009.2 hPa 0.0 l/m 5.2 km/h (1 Bft) N-NW 1.00 h 526 W/m 6.3 C 22.1 C 8.0 km/h (2 Bft)
07.04.2009 17:00 22.0 C 34 % 1009.2 hPa 0.0 l/m 2.7 km/h (1 Bft) N-NW 0.88 h 373 W/m 5.6 C 22.0 C 5.0 km/h (1 Bft)
07.04.2009 18:00 20.5 C 36 % 1009.5 hPa 0.0 l/m 11.9 km/h (2 Bft) W 0.43 h 130 W/m 4.7 C 20.5 C 18.4 km/h (3 Bft)
07.04.2009 19:00 16.2 C 48 % 1010.9 hPa 0.0 l/m 19.2 km/h (3 Bft) W-NW 0.00 h 21 W/m 5.2 C 16.2 C 29.1 km/h (5 Bft)
07.04.2009 20:00 14.8 C 55 % 1012.0 hPa 0.0 l/m 15.0 km/h (3 Bft) W-NW 0.00 h 0 W/m 5.8 C 14.8 C 23.4 km/h (4 Bft)
07.04.2009 21:00 13.6 C 59 % 1013.3 hPa 0.0 l/m 16.2 km/h (3 Bft) W-NW 0.00 h 0 W/m 5.6 C 13.6 C 25.6 km/h (4 Bft)
07.04.2009 22:00 12.6 C 62 % 1014.2 hPa 0.0 l/m 11.4 km/h (2 Bft) W-NW 0.00 h 0 W/m 5.6 C 12.6 C 18.4 km/h (3 Bft)
07.04.2009 23:00 12.2 C 64 % 1014.7 hPa 0.0 l/m 5.7 km/h (1 Bft) W-NW 0.00 h 0 W/m 5.5 C 12.2 C 10.0 km/h (2 Bft)
08.04.2009 00:00 11.6 C 66 % 1014.9 hPa 0.0 l/m 3.2 km/h (1 Bft) W-NW 0.00 h 0 W/m 5.4 C 11.6 C 6.2 km/h (2 Bft)
08.04.2009 01:00 11.3 C 68 % 1015.0 hPa 0.0 l/m 2.9 km/h (1 Bft) W 0.00 h 0 W/m 5.5 C 11.3 C 5.3 km/h (1 Bft)
08.04.2009 02:00 11.0 C 70 % 1014.8 hPa 0.0 l/m 1.6 km/h (1 Bft) W 0.00 h 0 W/m 5.7 C 11.0 C 3.4 km/h (1 Bft)
08.04.2009 03:00 9.9 C 75 % 1014.7 hPa 0.0 l/m 1.4 km/h (1 Bft) S-SO 0.00 h 0 W/m 5.6 C 9.9 C 2.8 km/h (1 Bft)
08.04.2009 04:00 9.0 C 79 % 1014.7 hPa 0.0 l/m 2.5 km/h (1 Bft) SO 0.00 h 0 W/m 5.6 C 8.9 C 4.3 km/h (1 Bft)
08.04.2009 05:00 8.6 C 81 % 1014.7 hPa 0.0 l/m 1.9 km/h (1 Bft) O-SO 0.00 h 0 W/m 5.6 C 8.5 C 3.3 km/h (1 Bft)
08.04.2009 06:00 8.5 C 83 % 1015.2 hPa 0.0 l/m 0.4 km/h (0 Bft) O-SO 0.00 h 5 W/m 5.7 C 8.5 C 0.7 km/h (0 Bft)
08.04.2009 07:00 8.4 C 84 % 1015.8 hPa 0.0 l/m 0.0 km/h (0 Bft) O-SO 0.00 h 34 W/m 6.0 C 8.4 C 0.2 km/h (0 Bft)
08.04.2009 08:00 9.4 C 85 % 1016.2 hPa 0.0 l/m 0.1 km/h (0 Bft) O-SO 0.78 h 169 W/m 6.9 C 9.4 C 0.5 km/h (0 Bft)
08.04.2009 09:00 11.3 C 77 % 1016.1 hPa 0.0 l/m 0.7 km/h (0 Bft) O-SO 0.10 h 195 W/m 7.3 C 11.3 C 2.1 km/h (1 Bft)
08.04.2009 10:00 12.9 C 71 % 1016.2 hPa 0.0 l/m 0.7 km/h (0 Bft) O-SO 0.43 h 362 W/m 7.8 C 12.9 C 2.0 km/h (1 Bft)
08.04.2009 11:00 14.2 C 64 % 1016.4 hPa 0.0 l/m 1.4 km/h (1 Bft) SO 0.05 h 307 W/m 7.4 C 14.2 C 3.4 km/h (1 Bft)
08.04.2009 12:00 14.9 C 62 % 1016.2 hPa 0.0 l/m 2.3 km/h (1 Bft) W-NW 0.20 h 365 W/m 7.7 C 14.9 C 4.3 km/h (1 Bft)
08.04.2009 13:00 15.7 C 59 % 1015.9 hPa 0.0 l/m 1.9 km/h (1 Bft) NW 0.60 h 424 W/m 7.8 C 15.7 C 3.9 km/h (1 Bft)
08.04.2009 14:00 16.8 C 55 % 1015.4 hPa 0.0 l/m 1.6 km/h (1 Bft) W-SW 0.33 h 370 W/m 7.7 C 16.8 C 3.9 km/h (1 Bft)
08.04.2009 15:00 17.2 C 55 % 1015.4 hPa 0.0 l/m 4.0 km/h (1 Bft) W-NW 0.65 h 413 W/m 7.9 C 17.2 C 6.4 km/h (2 Bft)
08.04.2009 16:00 17.8 C 52 % 1015.1 hPa 0.0 l/m 4.0 km/h (1 Bft) W-NW 0.95 h 423 W/m 7.7 C 17.8 C 6.0 km/h (2 Bft)
08.04.2009 17:00 17.7 C 52 % 1015.0 hPa 0.0 l/m 5.1 km/h (1 Bft) W-NW 0.12 h 198 W/m 7.8 C 17.7 C 7.9 km/h (2 Bft)
08.04.2009 18:00 16.5 C 59 % 1015.5 hPa 0.0 l/m 6.6 km/h (2 Bft) W 0.00 h 79 W/m 8.5 C 16.5 C 10.4 km/h (2 Bft)
08.04.2009 19:00 15.2 C 64 % 1015.8 hPa 0.0 l/m 5.6 km/h (1 Bft) W 0.03 h 28 W/m 8.5 C 15.2 C 8.9 km/h (2 Bft)
08.04.2009 20:00 14.4 C 66 % 1016.4 hPa 0.0 l/m 0.9 km/h (0 Bft) S-SO 0.00 h 6 W/m 8.2 C 14.4 C 2.1 km/h (1 Bft)
08.04.2009 21:00 13.7 C 69 % 1016.9 hPa 0.0 l/m 0.4 km/h (0 Bft) S-SO 0.00 h 0 W/m 8.2 C 13.7 C 1.0 km/h (0 Bft)
08.04.2009 22:00 12.8 C 72 % 1017.1 hPa 0.0 l/m 0.4 km/h (0 Bft) N-NO 0.00 h 0 W/m 8.0 C 12.8 C 1.6 km/h (1 Bft)
08.04.2009 23:00 11.6 C 78 % 1017.3 hPa 0.0 l/m 2.3 km/h (1 Bft) O 0.00 h 0 W/m 7.8 C 11.6 C 3.7 km/h (1 Bft)
09.04.2009 00:00 10.6 C 81 % 1017.6 hPa 0.0 l/m 0.8 km/h (0 Bft) O 0.00 h 0 W/m 7.4 C 10.6 C 1.7 km/h (1 Bft)
09.04.2009 01:00 9.7 C 83 % 1017.7 hPa 0.0 l/m 1.3 km/h (1 Bft) O 0.00 h 0 W/m 6.9 C 9.7 C 2.7 km/h (1 Bft)
09.04.2009 02:00 9.0 C 83 % 1017.7 hPa 0.0 l/m 0.3 km/h (0 Bft) O 0.00 h 0 W/m 6.3 C 9.0 C 0.9 km/h (0 Bft)
09.04.2009 03:00 7.7 C 87 % 1017.7 hPa 0.0 l/m 0.6 km/h (0 Bft) O 0.00 h 0 W/m 5.6 C 7.7 C 1.5 km/h (1 Bft)
09.04.2009 04:00 6.6 C 89 % 1017.7 hPa 0.0 l/m 0.5 km/h (0 Bft) O 0.00 h 0 W/m 4.9 C 6.6 C 0.9 km/h (0 Bft)
09.04.2009 05:00 6.0 C 91 % 1017.9 hPa 0.0 l/m 0.3 km/h (0 Bft) O 0.00 h 0 W/m 4.7 C 6.0 C 0.5 km/h (0 Bft)
09.04.2009 06:00 5.4 C 93 % 1018.1 hPa 0.0 l/m 0.7 km/h (0 Bft) O 0.00 h 7 W/m 4.4 C 5.4 C 1.0 km/h (0 Bft)
09.04.2009 07:00 5.1 C 94 % 1018.5 hPa 0.0 l/m 0.8 km/h (0 Bft) O 0.05 h 38 W/m 4.2 C 5.1 C 1.3 km/h (1 Bft)
09.04.2009 08:00 6.1 C 95 % 1018.6 hPa 0.0 l/m 0.0 km/h (0 Bft) O 0.57 h 153 W/m 5.4 C 6.1 C 0.3 km/h (0 Bft)
09.04.2009 09:00 9.1 C 87 % 1017.9 hPa 0.0 l/m 0.7 km/h (0 Bft) SW 1.00 h 313 W/m 7.1 C 9.1 C 1.7 km/h (1 Bft)
09.04.2009 10:00 12.2 C 71 % 1017.7 hPa 0.0 l/m 1.7 km/h (1 Bft) W 1.00 h 473 W/m 7.1 C 12.2 C 3.4 km/h (1 Bft)
09.04.2009 11:00 15.0 C 64 % 1016.9 hPa 0.0 l/m 5.0 km/h (1 Bft) O-SO 1.00 h 613 W/m 8.3 C 15.0 C 8.5 km/h (2 Bft)
09.04.2009 12:00 16.8 C 60 % 1016.0 hPa 0.0 l/m 6.2 km/h (2 Bft) O-SO 1.00 h 700 W/m 8.9 C 16.8 C 10.3 km/h (2 Bft)
09.04.2009 13:00 18.3 C 54 % 1014.9 hPa 0.0 l/m 8.4 km/h (2 Bft) O-SO 1.00 h 733 W/m 9.0 C 18.3 C 13.1 km/h (3 Bft)
09.04.2009 14:00 19.4 C 49 % 1014.0 hPa 0.0 l/m 9.1 km/h (2 Bft) O-SO 1.00 h 723 W/m 8.4 C 19.4 C 14.0 km/h (3 Bft)
09.04.2009 15:00 20.1 C 44 % 1013.4 hPa 0.0 l/m 6.9 km/h (2 Bft) O-SO 1.00 h 648 W/m 7.4 C 20.1 C 10.9 km/h (2 Bft)
09.04.2009 16:00 20.9 C 39 % 1012.7 hPa 0.0 l/m 3.2 km/h (1 Bft) O-SO 1.00 h 532 W/m 6.4 C 20.9 C 5.9 km/h (2 Bft)
09.04.2009 17:00 21.0 C 38 % 1012.2 hPa 0.0 l/m 2.0 km/h (1 Bft) O-SO 1.00 h 376 W/m 6.1 C 21.0 C 4.3 km/h (1 Bft)
09.04.2009 18:00 20.5 C 39 % 1012.0 hPa 0.0 l/m 1.8 km/h (1 Bft) O-SO 1.00 h 203 W/m 6.3 C 20.5 C 3.8 km/h (1 Bft)
09.04.2009 19:00 19.7 C 44 % 1011.8 hPa 0.0 l/m 1.2 km/h (1 Bft) O-SO 0.53 h 56 W/m 7.1 C 19.7 C 3.0 km/h (1 Bft)
09.04.2009 20:00 17.3 C 49 % 1011.8 hPa 0.0 l/m 1.2 km/h (1 Bft) O-SO 0.00 h 6 W/m 6.6 C 17.3 C 1.9 km/h (1 Bft)
09.04.2009 21:00 13.9 C 65 % 1012.1 hPa 0.0 l/m 1.5 km/h (1 Bft) O-SO 0.00 h 0 W/m 7.5 C 13.9 C 2.3 km/h (1 Bft)
09.04.2009 22:00 12.3 C 70 % 1012.2 hPa 0.0 l/m 0.4 km/h (0 Bft) O-SO 0.00 h 0 W/m 7.1 C 12.3 C 0.8 km/h (0 Bft)
09.04.2009 23:00 10.7 C 76 % 1012.1 hPa 0.0 l/m 2.2 km/h (1 Bft) O-SO 0.00 h 0 W/m 6.7 C 10.7 C 3.6 km/h (1 Bft)
10.04.2009 00:00 9.4 C 81 % 1012.1 hPa 0.0 l/m 1.6 km/h (1 Bft) O-SO 0.00 h 0 W/m 6.3 C 9.3 C 2.7 km/h (1 Bft)
10.04.2009 01:00 8.7 C 83 % 1012.0 hPa 0.0 l/m 3.5 km/h (1 Bft) O-SO 0.00 h 0 W/m 6.0 C 8.3 C 4.9 km/h (1 Bft)
10.04.2009 02:00 8.1 C 84 % 1011.8 hPa 0.0 l/m 1.1 km/h (1 Bft) O-SO 0.00 h 0 W/m 5.6 C 8.0 C 1.9 km/h (1 Bft)
10.04.2009 03:00 7.3 C 87 % 1011.5 hPa 0.0 l/m 1.2 km/h (1 Bft) O-SO 0.00 h 0 W/m 5.2 C 7.3 C 2.2 km/h (1 Bft)
10.04.2009 04:00 6.5 C 89 % 1011.4 hPa 0.0 l/m 1.8 km/h (1 Bft) O-SO 0.00 h 0 W/m 4.8 C 6.5 C 2.9 km/h (1 Bft)
10.04.2009 05:00 6.0 C 90 % 1011.3 hPa 0.0 l/m 1.4 km/h (1 Bft) O 0.00 h 0 W/m 4.5 C 6.0 C 2.2 km/h (1 Bft)
10.04.2009 06:00 5.2 C 91 % 1011.2 hPa 0.0 l/m 0.6 km/h (0 Bft) O 0.00 h 7 W/m 3.9 C 5.2 C 1.4 km/h (1 Bft)
10.04.2009 07:00 4.9 C 93 % 1011.3 hPa 0.0 l/m 0.3 km/h (0 Bft) O 0.00 h 31 W/m 3.8 C 4.9 C 1.2 km/h (1 Bft)
10.04.2009 08:00 6.5 C 93 % 1011.3 hPa 0.0 l/m 0.0 km/h (0 Bft) N 0.95 h 185 W/m 5.5 C 6.5 C 0.2 km/h (0 Bft)
10.04.2009 09:00 10.3 C 80 % 1010.7 hPa 0.0 l/m 0.3 km/h (0 Bft) O 1.00 h 359 W/m 7.0 C 10.3 C 1.0 km/h (0 Bft)
10.04.2009 10:00 13.1 C 69 % 1010.1 hPa 0.0 l/m 1.3 km/h (1 Bft) N 1.00 h 520 W/m 7.5 C 13.1 C 3.2 km/h (1 Bft)
10.04.2009 11:00 16.3 C 57 % 1009.3 hPa 0.0 l/m 2.2 km/h (1 Bft) NW 1.00 h 652 W/m 7.7 C 16.3 C 4.3 km/h (1 Bft)
10.04.2009 12:00 18.9 C 47 % 1008.4 hPa 0.0 l/m 3.2 km/h (1 Bft) W-NW 1.00 h 736 W/m 7.3 C 18.9 C 5.3 km/h (1 Bft)
10.04.2009 13:00 21.2 C 38 % 1007.4 hPa 0.0 l/m 3.5 km/h (1 Bft) NW 1.00 h 759 W/m 6.4 C 21.2 C 5.8 km/h (2 Bft)
10.04.2009 14:00 22.0 C 35 % 1006.7 hPa 0.0 l/m 3.1 km/h (1 Bft) O-SO 1.00 h 739 W/m 5.7 C 22.0 C 6.1 km/h (2 Bft)
10.04.2009 15:00 23.2 C 30 % 1006.0 hPa 0.0 l/m 3.6 km/h (1 Bft) SO 1.00 h 662 W/m 4.4 C 23.2 C 6.6 km/h (2 Bft)
10.04.2009 16:00 23.5 C 29 % 1005.1 hPa 0.0 l/m 2.2 km/h (1 Bft) O-SO 1.00 h 547 W/m 4.2 C 23.5 C 4.5 km/h (1 Bft)
10.04.2009 17:00 23.3 C 29 % 1004.7 hPa 0.0 l/m 3.4 km/h (1 Bft) O-SO 1.00 h 401 W/m 4.0 C 23.3 C 6.2 km/h (2 Bft)
10.04.2009 18:00 22.1 C 32 % 1004.6 hPa 0.0 l/m 5.8 km/h (2 Bft) SO 1.00 h 225 W/m 4.6 C 22.1 C 9.0 km/h (2 Bft)
10.04.2009 19:00 20.8 C 35 % 1004.7 hPa 0.0 l/m 3.6 km/h (1 Bft) S-SO 0.67 h 64 W/m 4.6 C 20.8 C 6.3 km/h (2 Bft)
10.04.2009 20:00 17.6 C 44 % 1005.0 hPa 0.0 l/m 2.9 km/h (1 Bft) SO 0.00 h 6 W/m 5.0 C 17.6 C 4.4 km/h (1 Bft)
10.04.2009 21:00 14.8 C 51 % 1005.6 hPa 0.0 l/m 2.3 km/h (1 Bft) O-SO 0.00 h 0 W/m 4.9 C 14.8 C 3.7 km/h (1 Bft)
10.04.2009 22:00 13.6 C 54 % 1005.7 hPa 0.0 l/m 1.3 km/h (1 Bft) O-SO 0.00 h 0 W/m 4.4 C 13.6 C 2.3 km/h (1 Bft)
10.04.2009 23:00 12.0 C 60 % 1006.1 hPa 0.0 l/m 0.6 km/h (0 Bft) SO 0.00 h 0 W/m 4.5 C 12.0 C 1.3 km/h (1 Bft)
11.04.2009 00:00 10.6 C 67 % 1006.4 hPa 0.0 l/m 0.1 km/h (0 Bft) SO 0.00 h 0 W/m 4.7 C 10.6 C 0.7 km/h (0 Bft)
11.04.2009 01:00 9.2 C 72 % 1006.4 hPa 0.0 l/m 1.6 km/h (1 Bft) SO 0.00 h 0 W/m 4.4 C 9.2 C 2.8 km/h (1 Bft)
11.04.2009 02:00 8.1 C 77 % 1006.4 hPa 0.0 l/m 1.7 km/h (1 Bft) SO 0.00 h 0 W/m 4.3 C 7.9 C 2.6 km/h (1 Bft)
11.04.2009 03:00 7.2 C 80 % 1006.4 hPa 0.0 l/m 0.6 km/h (0 Bft) SO 0.00 h 0 W/m 4.1 C 7.2 C 1.0 km/h (0 Bft)
11.04.2009 04:00 6.5 C 82 % 1006.5 hPa 0.0 l/m 1.4 km/h (1 Bft) SO 0.00 h 0 W/m 3.7 C 6.5 C 2.3 km/h (1 Bft)
11.04.2009 05:00 6.2 C 82 % 1006.6 hPa 0.0 l/m 1.6 km/h (1 Bft) SO 0.00 h 0 W/m 3.3 C 6.1 C 2.3 km/h (1 Bft)
11.04.2009 06:00 5.6 C 84 % 1007.1 hPa 0.0 l/m 1.4 km/h (1 Bft) SO 0.03 h 8 W/m 3.1 C 5.6 C 2.4 km/h (1 Bft)
11.04.2009 07:00 5.3 C 86 % 1007.7 hPa 0.0 l/m 0.3 km/h (0 Bft) SO 0.00 h 28 W/m 3.2 C 5.3 C 0.9 km/h (0 Bft)
11.04.2009 08:00 7.3 C 84 % 1008.0 hPa 0.0 l/m 0.2 km/h (0 Bft) SO 0.98 h 193 W/m 4.7 C 7.3 C 0.5 km/h (0 Bft)
11.04.2009 09:00 11.2 C 68 % 1007.8 hPa 0.0 l/m 0.9 km/h (0 Bft) O-NO 1.00 h 364 W/m 5.5 C 11.2 C 2.3 km/h (1 Bft)
11.04.2009 10:00 13.6 C 60 % 1007.7 hPa 0.0 l/m 0.8 km/h (0 Bft) NO 0.85 h 415 W/m 6.0 C 13.6 C 2.3 km/h (1 Bft)
11.04.2009 11:00 16.4 C 53 % 1007.4 hPa 0.0 l/m 2.6 km/h (1 Bft) N-NW 0.98 h 554 W/m 6.9 C 16.4 C 4.6 km/h (1 Bft)
11.04.2009 12:00 18.4 C 50 % 1006.9 hPa 0.0 l/m 2.2 km/h (1 Bft) N-NW 0.83 h 466 W/m 7.8 C 18.4 C 4.0 km/h (1 Bft)
11.04.2009 13:00 20.4 C 41 % 1006.3 hPa 0.0 l/m 3.3 km/h (1 Bft) N 1.00 h 702 W/m 6.8 C 20.4 C 5.3 km/h (1 Bft)
11.04.2009 14:00 21.6 C 35 % 1005.8 hPa 0.0 l/m 2.8 km/h (1 Bft) O-SO 1.00 h 679 W/m 5.3 C 21.6 C 5.1 km/h (1 Bft)
11.04.2009 15:00 22.7 C 30 % 1005.4 hPa 0.0 l/m 2.2 km/h (1 Bft) SO 1.00 h 633 W/m 4.2 C 22.7 C 4.7 km/h (1 Bft)
11.04.2009 16:00 22.6 C 29 % 1005.0 hPa 0.0 l/m 4.1 km/h (1 Bft) O-SO 0.73 h 447 W/m 3.7 C 22.6 C 7.3 km/h (2 Bft)
11.04.2009 17:00 21.8 C 32 % 1005.0 hPa 0.0 l/m 4.4 km/h (1 Bft) O-SO 0.48 h 236 W/m 4.1 C 21.8 C 7.6 km/h (2 Bft)
11.04.2009 18:00 20.6 C 35 % 1005.4 hPa 0.0 l/m 6.6 km/h (2 Bft) SO 0.53 h 165 W/m 4.5 C 20.6 C 9.7 km/h (2 Bft)
11.04.2009 19:00 18.5 C 39 % 1005.9 hPa 0.0 l/m 4.1 km/h (1 Bft) SO 0.00 h 44 W/m 4.2 C 18.5 C 6.9 km/h (2 Bft)
11.04.2009 20:00 16.6 C 39 % 1006.3 hPa 0.0 l/m 1.3 km/h (1 Bft) SO 0.00 h 6 W/m 2.5 C 16.6 C 2.5 km/h (1 Bft)
11.04.2009 21:00 15.9 C 38 % 1006.7 hPa 0.0 l/m 0.5 km/h (0 Bft) O 0.00 h 0 W/m 1.4 C 15.9 C 1.7 km/h (1 Bft)
11.04.2009 22:00 14.0 C 49 % 1006.9 hPa 0.0 l/m 0.4 km/h (0 Bft) O-NO 0.00 h 0 W/m 3.5 C 14.0 C 1.4 km/h (1 Bft)
11.04.2009 23:00 12.0 C 55 % 1006.7 hPa 0.0 l/m 0.2 km/h (0 Bft) O-NO 0.00 h 0 W/m 3.1 C 12.0 C 0.7 km/h (0 Bft)
12.04.2009 00:00 10.8 C 62 % 1006.9 hPa 0.0 l/m 0.2 km/h (0 Bft) O-NO 0.00 h 0 W/m 3.9 C 10.8 C 1.1 km/h (0 Bft)
12.04.2009 01:00 9.9 C 67 % 1006.8 hPa 0.0 l/m 0.3 km/h (0 Bft) O-NO 0.00 h 0 W/m 4.1 C 9.9 C 1.1 km/h (1 Bft)
12.04.2009 02:00 8.8 C 72 % 1006.7 hPa 0.0 l/m 0.5 km/h (0 Bft) O-NO 0.00 h 0 W/m 3.9 C 8.8 C 1.1 km/h (1 Bft)
12.04.2009 03:00 8.2 C 73 % 1006.8 hPa 0.0 l/m 1.8 km/h (1 Bft) O 0.00 h 0 W/m 3.6 C 8.1 C 2.8 km/h (1 Bft)
12.04.2009 04:00 7.4 C 76 % 1007.1 hPa 0.0 l/m 1.7 km/h (1 Bft) O-SO 0.00 h 0 W/m 3.4 C 7.2 C 2.6 km/h (1 Bft)
12.04.2009 05:00 7.0 C 77 % 1007.2 hPa 0.0 l/m 0.6 km/h (0 Bft) O-SO 0.00 h 0 W/m 3.4 C 7.0 C 1.5 km/h (1 Bft)
12.04.2009 06:00 6.5 C 79 % 1007.7 hPa 0.0 l/m 0.0 km/h (0 Bft) O-SO 0.00 h 7 W/m 3.2 C 6.5 C 0.4 km/h (0 Bft)
12.04.2009 07:00 6.4 C 81 % 1008.1 hPa 0.0 l/m 0.3 km/h (0 Bft) O-SO 0.00 h 30 W/m 3.4 C 6.4 C 0.9 km/h (0 Bft)
12.04.2009 08:00 6.9 C 83 % 1008.2 hPa 0.0 l/m 0.0 km/h (0 Bft) N 0.00 h 98 W/m 4.2 C 6.9 C 0.3 km/h (0 Bft)
12.04.2009 09:00 8.5 C 77 % 1008.4 hPa 0.0 l/m 0.1 km/h (0 Bft) O-SO 0.00 h 193 W/m 4.6 C 8.5 C 0.7 km/h (0 Bft)
12.04.2009 10:00 11.1 C 66 % 1008.3 hPa 0.0 l/m 0.9 km/h (0 Bft) N-NW 0.58 h 334 W/m 5.0 C 11.1 C 2.5 km/h (1 Bft)
12.04.2009 11:00 13.6 C 57 % 1008.3 hPa 0.0 l/m 1.4 km/h (1 Bft) N-NW 1.00 h 456 W/m 5.2 C 13.6 C 3.0 km/h (1 Bft)
12.04.2009 12:00 15.6 C 48 % 1007.9 hPa 0.0 l/m 2.7 km/h (1 Bft) N-NW 1.00 h 468 W/m 4.6 C 15.6 C 4.6 km/h (1 Bft)
12.04.2009 13:00 17.4 C 43 % 1007.5 hPa 0.0 l/m 3.0 km/h (1 Bft) N-NW 1.00 h 550 W/m 4.7 C 17.4 C 5.0 km/h (1 Bft)
12.04.2009 14:00 19.4 C 39 % 1007.1 hPa 0.0 l/m 2.9 km/h (1 Bft) N-NW 1.00 h 553 W/m 4.9 C 19.4 C 5.1 km/h (1 Bft)
12.04.2009 15:00 19.8 C 38 % 1006.7 hPa 0.0 l/m 2.6 km/h (1 Bft) W-SW 0.42 h 369 W/m 5.2 C 19.8 C 4.4 km/h (1 Bft)
12.04.2009 16:00 19.8 C 38 % 1006.5 hPa 0.0 l/m 1.1 km/h (1 Bft) W-SW 0.00 h 234 W/m 5.1 C 19.8 C 2.4 km/h (1 Bft)
12.04.2009 17:00 19.4 C 44 % 1006.5 hPa 0.0 l/m 1.8 km/h (1 Bft) NW 0.00 h 168 W/m 6.7 C 19.4 C 3.8 km/h (1 Bft)
12.04.2009 18:00 18.6 C 50 % 1006.7 hPa 0.0 l/m 0.6 km/h (0 Bft) N-NW 0.00 h 86 W/m 8.1 C 18.6 C 1.4 km/h (1 Bft)
12.04.2009 19:00 17.4 C 55 % 1007.1 hPa 0.0 l/m 0.2 km/h (0 Bft) N-NW 0.00 h 30 W/m 8.3 C 17.4 C 1.3 km/h (1 Bft)
12.04.2009 20:00 15.7 C 61 % 1007.6 hPa 0.0 l/m 0.9 km/h (0 Bft) N-NW 0.00 h 6 W/m 8.1 C 15.7 C 2.3 km/h (1 Bft)
12.04.2009 21:00 14.0 C 67 % 1008.0 hPa 0.0 l/m 0.8 km/h (0 Bft) O 0.00 h 0 W/m 8.0 C 14.0 C 2.4 km/h (1 Bft)
12.04.2009 22:00 11.9 C 75 % 1008.0 hPa 0.0 l/m 1.1 km/h (0 Bft) NO 0.00 h 0 W/m 7.5 C 11.9 C 3.0 km/h (1 Bft)
12.04.2009 23:00 10.8 C 79 % 1008.0 hPa 0.0 l/m 0.9 km/h (0 Bft) O 0.00 h 0 W/m 7.3 C 10.8 C 2.6 km/h (1 Bft)
Min-Datum _ 10.04.09 10.04.09 10.04.09 - 06.04.09 - - - 11.04.09 11.04.09 06.04.09
_ Min-Zeit 07:17 16:10 17:45 - 00:00 - - - 21:25 06:37 00:11
Minimum _ 4.8 C 25 % 1004.5 hPa - 0.0 km/h (0 Bft) - - - -0.4 C 4.5 C 0.0 km/h (0 Bft)
Max-Datum _ 10.04.09 06.04.09 09.04.09 06.04.09 07.04.09 - 06.04.09 07.04.09 07.04.09 10.04.09 07.04.09
_ Max-Zeit 17:37 09:08 08:15 00:00 18:47 - 07:06 15:02 12:42 17:36 18:47
Maximum _ 24.1 C 98 % 1018.7 hPa 0.0 l/m 29.5 km/h
W (5 Bft)
- 0.02 h 847 W/m 11.2 C 24.1 C 46.9 km/h
W-NW (6 Bft)
Durchschnitt _ 13.2 C 65 % 1011.3 hPa #0.0 l/m 2.2 km/h (1 Bft) O-SO #61:17 h 327 W/m 6.0 C 13.2 C 4.0 km/h (1 Bft)
© Kaiko 2009